Time;durP1;ratioP1;P1;durP2;ratioP2;P2;SDS_P1;SDS_P2;PMS_P1;PMS_P2;Temp;Humidity;BMP_temperature;BMP_pressure;BME280_temperature;BME280_humidity;BME280_pressure;Samples;Min_cycle;Max_cycle;Signal;HPM_P1;HPM_P2
2023/06/16 00:00:10;;;;;;;8.40;6.78;;;;;;;17.02;60.77;100242.88;5133654;27;20204;-75
2023/06/16 00:02:41;;;;;;;8.70;7.47;;;;;;;16.99;60.81;100246.44;5134296;27;20226;-75
2023/06/16 00:05:10;;;;;;;9.63;7.20;;;;;;;16.98;61.73;100243.88;5136651;27;20192;-75
2023/06/16 00:07:39;;;;;;;9.23;7.40;;;;;;;16.96;62.11;100240.47;5134496;27;20207;-74
2023/06/16 00:10:08;;;;;;;10.65;6.95;;;;;;;16.94;62.59;100237.06;5132676;27;20232;-75
2023/06/16 00:12:37;;;;;;;8.40;7.15;;;;;;;16.85;62.61;100244.28;5133088;27;20610;-76
2023/06/16 00:15:08;;;;;;;10.52;7.60;;;;;;;16.82;63.07;100244.38;5135218;27;20286;-75
2023/06/16 00:17:44;;;;;;;10.30;7.72;;;;;;;16.77;63.13;100248.91;5134043;27;20226;-75
2023/06/16 00:20:15;;;;;;;10.82;7.32;;;;;;;16.66;63.47;100248.38;5125677;27;20290;-75
2023/06/16 00:22:47;;;;;;;9.90;7.22;;;;;;;16.59;64.04;100249.50;5130886;27;20237;-75
2023/06/16 00:25:17;;;;;;;9.00;7.38;;;;;;;16.58;63.91;100248.66;5132583;27;20561;-75
2023/06/16 00:27:46;;;;;;;7.55;6.35;;;;;;;16.56;64.09;100254.78;5131255;27;20294;-74
2023/06/16 00:30:15;;;;;;;8.98;7.22;;;;;;;16.53;64.16;100249.69;5140012;27;20199;-76
2023/06/16 00:32:43;;;;;;;9.30;7.15;;;;;;;16.49;64.27;100253.28;5132159;27;20240;-75
2023/06/16 00:35:11;;;;;;;9.15;7.93;;;;;;;16.48;64.24;100254.19;5131061;27;20638;-74
2023/06/16 00:37:41;;;;;;;12.68;8.27;;;;;;;16.45;63.70;100246.50;5133878;27;20207;-74
2023/06/16 00:40:10;;;;;;;10.30;8.30;;;;;;;16.47;63.79;100250.75;5132750;27;20246;-75
2023/06/16 00:42:38;;;;;;;12.20;8.70;;;;;;;16.47;63.79;100250.75;5133917;27;20191;-74
2023/06/16 00:45:07;;;;;;;10.18;8.85;;;;;;;16.48;62.94;100246.41;5133338;27;20211;-74
2023/06/16 00:47:36;;;;;;;10.32;8.30;;;;;;;16.45;63.24;100247.34;5133852;27;20219;-76
2023/06/16 00:50:05;;;;;;;11.10;7.78;;;;;;;16.49;63.42;100237.69;5131945;27;20214;-73
2023/06/16 00:52:38;;;;;;;10.07;7.80;;;;;;;16.52;63.73;100241.03;5130334;27;20203;-74
2023/06/16 00:55:11;;;;;;;9.40;8.40;;;;;;;16.52;63.59;100237.59;5131825;27;20566;-75
2023/06/16 00:57:40;;;;;;;10.30;9.18;;;;;;;16.56;63.05;100234.81;5133430;27;20199;-75
2023/06/16 01:00:11;;;;;;;9.32;8.35;;;;;;;16.58;62.93;100240.00;5132909;27;20203;-75
2023/06/16 01:02:39;;;;;;;9.55;8.65;;;;;;;16.57;62.60;100220.06;5131465;27;20263;-74
2023/06/16 01:05:09;;;;;;;10.02;8.93;;;;;;;16.62;62.58;100219.03;5131688;27;20195;-74
2023/06/16 01:07:43;;;;;;;11.32;8.65;;;;;;;16.62;62.42;100219.03;5131463;27;20245;-73
2023/06/16 01:10:18;;;;;;;10.65;9.30;;;;;;;16.62;62.79;100221.63;5130095;27;20675;-74
2023/06/16 01:12:55;;;;;;;10.05;8.90;;;;;;;16.62;62.84;100225.97;5131078;27;20222;-72
2023/06/16 01:15:26;;;;;;;10.85;8.82;;;;;;;16.62;63.01;100223.38;5132788;27;20218;-73
2023/06/16 01:17:57;;;;;;;10.40;8.10;;;;;;;16.60;63.35;100220.81;5134399;27;20766;-72
2023/06/16 01:20:37;;;;;;;9.30;8.35;;;;;;;16.55;63.83;100222.72;5136278;27;20601;-73
2023/06/16 01:23:20;;;;;;;13.75;9.63;;;;;;;16.47;64.20;100229.09;5131254;27;20211;-74
2023/06/16 01:25:53;;;;;;;11.57;8.55;;;;;;;16.39;64.32;100234.56;5132111;27;20597;-73
2023/06/16 01:28:23;;;;;;;10.35;8.48;;;;;;;16.28;64.71;100224.50;5128227;27;20225;-74
2023/06/16 01:30:52;;;;;;;12.85;8.63;;;;;;;16.25;64.93;100236.75;5132701;27;20222;-72
2023/06/16 01:33:23;;;;;;;10.20;9.30;;;;;;;16.21;65.34;100236.00;5131767;27;20629;-72
2023/06/16 01:35:53;;;;;;;11.00;9.05;;;;;;;16.21;65.72;100232.53;5137241;27;20214;-72
2023/06/16 01:38:23;;;;;;;10.50;9.05;;;;;;;16.17;65.62;100237.00;5134492;27;20244;-70
2023/06/16 01:40:55;;;;;;;9.90;8.90;;;;;;;16.13;65.56;100232.78;5135917;27;20215;-71
2023/06/16 01:43:24;;;;;;;10.23;8.88;;;;;;;16.08;65.85;100232.91;5131906;27;20202;-72
2023/06/16 01:45:52;;;;;;;9.77;8.77;;;;;;;16.03;65.78;100231.38;5131612;27;20253;-72
2023/06/16 01:48:21;;;;;;;11.52;9.50;;;;;;;15.99;65.79;100232.38;5133801;27;20207;-72
2023/06/16 01:50:53;;;;;;;10.38;9.13;;;;;;;15.96;66.18;100227.25;5132465;27;20238;-72
2023/06/16 01:53:22;;;;;;;10.25;9.23;;;;;;;15.91;66.25;100232.59;5131322;27;20282;-73
2023/06/16 01:55:53;;;;;;;11.77;8.90;;;;;;;15.89;66.14;100232.63;5130220;27;20595;-72
2023/06/16 01:58:24;;;;;;;10.75;9.02;;;;;;;15.86;66.62;100232.72;5131668;27;20257;-73
2023/06/16 02:00:59;;;;;;;12.65;8.63;;;;;;;15.83;67.25;100237.16;5131791;27;20216;-73
2023/06/16 02:03:32;;;;;;;11.38;9.25;;;;;;;15.82;66.94;100231.09;5126750;27;20689;-71
2023/06/16 02:06:05;;;;;;;12.38;8.05;;;;;;;15.80;67.43;100227.72;5130990;27;20214;-73
2023/06/16 02:08:34;;;;;;;11.77;9.35;;;;;;;15.81;67.00;100228.56;5133190;27;20203;-72
2023/06/16 02:11:04;;;;;;;9.82;8.60;;;;;;;15.78;67.71;100229.50;5129935;27;20225;-74
2023/06/16 02:13:32;;;;;;;10.68;8.95;;;;;;;15.74;67.73;100230.50;5131173;27;20234;-73
2023/06/16 02:16:01;;;;;;;9.68;8.60;;;;;;;15.69;67.94;100225.44;5133346;27;20199;-72
2023/06/16 02:18:32;;;;;;;11.30;8.70;;;;;;;15.71;67.83;100222.78;5136892;27;20199;-73
2023/06/16 02:21:00;;;;;;;9.55;8.65;;;;;;;15.68;67.75;100228.06;5132548;27;20250;-73
2023/06/16 02:23:28;;;;;;;10.27;9.20;;;;;;;15.67;67.94;100231.56;5138295;27;20260;-73
2023/06/16 02:25:56;;;;;;;9.73;8.73;;;;;;;15.65;68.18;100233.34;5135984;27;20238;-72
2023/06/16 02:28:26;;;;;;;10.65;9.43;;;;;;;15.63;68.27;100225.59;5136030;27;20195;-73
2023/06/16 02:30:54;;;;;;;10.88;9.65;;;;;;;15.60;68.35;100233.47;5135952;27;20209;-72
2023/06/16 02:33:22;;;;;;;10.77;9.68;;;;;;;15.58;68.29;100231.81;5136884;27;20243;-74
2023/06/16 02:35:50;;;;;;;10.30;9.30;;;;;;;15.56;68.22;100234.44;5133610;27;20548;-73
2023/06/16 02:38:18;;;;;;;9.40;8.50;;;;;;;15.57;68.25;100230.94;5135658;27;20252;-72
2023/06/16 02:40:46;;;;;;;10.95;9.85;;;;;;;15.59;68.22;100233.50;5135394;27;20211;-72
2023/06/16 02:43:14;;;;;;;11.82;9.07;;;;;;;15.60;68.64;100237.81;5136246;27;20199;-72
2023/06/16 02:45:44;;;;;;;10.43;9.35;;;;;;;15.58;68.73;100231.81;5134448;27;20202;-72
2023/06/16 02:48:12;;;;;;;9.55;8.65;;;;;;;15.56;69.02;100233.59;5131197;27;20554;-73
2023/06/16 02:50:40;;;;;;;10.57;9.07;;;;;;;15.60;68.96;100235.22;5124787;27;20685;-72
2023/06/16 02:53:08;;;;;;;11.52;9.50;;;;;;;15.61;68.62;100232.59;5133841;27;20203;-72
2023/06/16 02:55:36;;;;;;;10.75;9.65;;;;;;;15.63;68.48;100237.72;5132637;27;20241;-72
2023/06/16 02:58:04;;;;;;;11.45;9.55;;;;;;;15.63;68.61;100241.16;5133616;27;20199;-73
2023/06/16 03:00:32;;;;;;;10.13;9.13;;;;;;;15.61;68.83;100231.72;5135380;27;20808;-73
2023/06/16 03:03:02;;;;;;;10.98;9.40;;;;;;;15.60;68.74;100236.06;5137250;27;20257;-72
2023/06/16 03:05:31;;;;;;;10.48;9.20;;;;;;;15.60;69.33;100230.88;5134192;27;20195;-72
2023/06/16 03:07:59;;;;;;;10.20;9.15;;;;;;;15.60;69.25;100230.00;5139601;27;20642;-66
2023/06/16 03:10:27;;;;;;;10.45;9.30;;;;;;;15.64;69.17;100236.81;5133043;27;20202;-65
2023/06/16 03:12:55;;;;;;;12.07;9.30;;;;;;;15.65;69.18;100233.34;5134545;27;20545;-66
2023/06/16 03:15:25;;;;;;;11.35;9.48;;;;;;;15.70;68.72;100242.72;5131837;27;20674;-66
2023/06/16 03:17:53;;;;;;;12.80;9.95;;;;;;;15.73;68.95;100236.59;5131487;27;20214;-67
2023/06/16 03:20:23;;;;;;;11.75;10.55;;;;;;;15.76;68.80;100239.09;5133909;27;20199;-65
2023/06/16 03:22:51;;;;;;;10.75;9.60;;;;;;;15.77;68.77;100233.00;5132396;27;20219;-65
2023/06/16 03:25:21;;;;;;;11.35;10.20;;;;;;;15.78;68.82;100236.44;5132863;27;20206;-68
2023/06/16 03:27:49;;;;;;;11.05;9.68;;;;;;;15.82;68.91;100246.69;5134500;27;20632;-65
2023/06/16 03:30:17;;;;;;;14.98;10.00;;;;;;;15.86;68.77;100232.72;5136083;27;20203;-66
2023/06/16 03:32:47;;;;;;;11.10;10.00;;;;;;;15.90;68.80;100239.50;5133894;27;20196;-66
2023/06/16 03:35:15;;;;;;;13.02;11.00;;;;;;;15.94;68.81;100245.47;5127019;27;20621;-65
2023/06/16 03:37:44;;;;;;;13.68;11.07;;;;;;;16.00;68.17;100241.84;5133192;27;20199;-65
2023/06/16 03:40:12;;;;;;;12.68;11.38;;;;;;;16.03;67.11;100242.59;5130384;27;20206;-66
2023/06/16 03:42:40;;;;;;;14.32;10.15;;;;;;;16.06;67.22;100254.66;5132802;27;20605;-66
2023/06/16 03:45:09;;;;;;;13.70;11.27;;;;;;;16.09;67.46;100249.34;5123161;27;20910;-66
2023/06/16 03:47:37;;;;;;;11.75;10.57;;;;;;;16.14;67.54;100252.69;5129940;27;20205;-65
2023/06/16 03:50:06;;;;;;;19.45;11.43;;;;;;;16.20;67.40;100255.09;5131652;27;20723;-65
2023/06/16 03:52:35;;;;;;;13.50;10.85;;;;;;;16.22;67.68;100250.69;5130278;27;20295;-64
2023/06/16 03:55:05;;;;;;;12.18;11.07;;;;;;;16.25;67.58;100254.94;5133422;27;20214;-66
2023/06/16 03:57:33;;;;;;;12.13;10.35;;;;;;;16.26;67.33;100252.28;5139034;27;20286;-65
2023/06/16 04:00:02;;;;;;;12.90;11.50;;;;;;;16.30;67.33;100250.44;5133241;27;20667;-66
2023/06/16 04:02:31;;;;;;;13.38;11.38;;;;;;;16.37;67.18;100255.38;5132788;27;20249;-66
2023/06/16 04:05:00;;;;;;;13.52;11.10;;;;;;;16.45;66.50;100242.13;5139399;27;20228;-66
2023/06/16 04:07:30;;;;;;;15.80;11.63;;;;;;;16.49;66.48;100248.94;5133898;27;20215;-65
2023/06/16 04:09:58;;;;;;;13.48;10.65;;;;;;;16.54;66.70;100251.41;5131609;27;20534;-66
2023/06/16 04:12:27;;;;;;;16.70;11.18;;;;;;;16.59;66.94;100252.94;5131114;27;20510;-67
2023/06/16 04:14:56;;;;;;;12.82;11.23;;;;;;;16.68;66.87;100249.22;5124642;27;20561;-66
2023/06/16 04:17:24;;;;;;;14.00;12.20;;;;;;;16.76;66.37;100242.00;5133607;27;20210;-65
2023/06/16 04:19:52;;;;;;;14.73;10.82;;;;;;;16.90;66.16;100244.16;5133623;27;20203;-66
2023/06/16 04:22:20;;;;;;;12.73;11.48;;;;;;;17.06;66.14;100239.25;5133329;27;20279;-67
2023/06/16 04:24:49;;;;;;;16.95;12.13;;;;;;;17.24;65.75;100241.22;5132532;27;20207;-65
2023/06/16 04:27:17;;;;;;;12.13;10.88;;;;;;;17.46;65.17;100236.06;5132643;27;20287;-67
2023/06/16 04:29:49;;;;;;;14.35;11.48;;;;;;;17.73;64.04;100236.78;5131066;27;20662;-64
2023/06/16 04:32:17;;;;;;;14.02;11.15;;;;;;;17.95;63.24;100231.63;5126886;27;20191;-66
2023/06/16 04:34:46;;;;;;;13.10;10.85;;;;;;;18.16;62.55;100236.94;5126968;27;20248;-65
2023/06/16 04:37:16;;;;;;;15.25;10.88;;;;;;;18.38;61.57;100234.31;5130199;27;20199;-70
2023/06/16 04:39:44;;;;;;;13.05;10.48;;;;;;;18.58;60.63;100232.53;5126329;27;20196;-68
2023/06/16 04:42:12;;;;;;;11.88;10.55;;;;;;;18.74;59.78;100227.59;5122614;27;20290;-68
2023/06/16 04:44:41;;;;;;;14.43;11.85;;;;;;;18.95;59.00;100230.19;5133189;27;20626;-68
2023/06/16 04:47:12;;;;;;;12.95;11.52;;;;;;;19.13;58.55;100229.38;5133363;27;20190;-68
2023/06/16 04:49:40;;;;;;;13.57;12.15;;;;;;;19.33;58.00;100225.91;5131510;27;20203;-68
2023/06/16 04:52:09;;;;;;;12.35;11.13;;;;;;;19.52;57.43;100229.38;5122449;27;20203;-68
2023/06/16 04:54:37;;;;;;;13.05;11.65;;;;;;;19.71;56.67;100236.41;5134242;27;20585;-67
2023/06/16 04:57:06;;;;;;;12.13;10.93;;;;;;;19.86;56.44;100225.22;5129718;27;20208;-67
2023/06/16 04:59:35;;;;;;;12.13;10.93;;;;;;;20.02;55.88;100228.78;5128906;27;20199;-66
2023/06/16 05:02:03;;;;;;;13.23;11.07;;;;;;;20.22;55.37;100233.09;5129593;27;20245;-68
2023/06/16 05:04:32;;;;;;;11.75;10.18;;;;;;;20.44;54.32;100232.03;5131060;27;20202;-66
2023/06/16 05:07:00;;;;;;;11.13;9.75;;;;;;;20.74;53.55;100224.44;5129814;27;20604;-69
2023/06/16 05:09:29;;;;;;;15.93;10.90;;;;;;;21.28;52.66;100219.03;5127106;27;20911;-67
2023/06/16 05:11:57;;;;;;;15.63;11.20;;;;;;;22.24;50.50;100215.53;5132760;27;20199;-70
2023/06/16 05:14:26;;;;;;;12.55;10.43;;;;;;;23.41;46.72;100215.56;5131180;27;20605;-67
2023/06/16 05:16:54;;;;;;;11.27;10.27;;;;;;;24.54;42.80;100218.84;5133558;27;20263;-68
2023/06/16 05:19:22;;;;;;;11.98;9.32;;;;;;;25.87;40.20;100207.91;5133227;27;20272;-67
2023/06/16 05:21:51;;;;;;;10.10;9.10;;;;;;;27.42;36.08;100211.09;5125100;27;20222;-68
2023/06/16 05:24:19;;;;;;;10.48;8.70;;;;;;;28.75;33.20;100212.59;5117248;27;20272;-68
2023/06/16 05:26:47;;;;;;;9.35;8.45;;;;;;;29.86;31.35;100209.16;5128473;27;20268;-68
2023/06/16 05:29:16;;;;;;;9.88;8.88;;;;;;;30.82;29.74;100211.94;5128971;27;20207;-68
2023/06/16 05:31:44;;;;;;;10.15;9.13;;;;;;;31.82;28.51;100208.59;5130595;27;20206;-68
2023/06/16 05:34:12;;;;;;;9.38;7.22;;;;;;;32.88;26.48;100207.69;5131893;27;20204;-67
2023/06/16 05:36:40;;;;;;;6.50;5.85;;;;;;;33.77;24.24;100205.59;5132534;27;20199;-70
2023/06/16 05:39:13;;;;;;;7.78;6.95;;;;;;;34.43;23.25;100204.66;5128762;27;20218;-65
2023/06/16 05:41:42;;;;;;;10.02;6.57;;;;;;;35.32;22.47;100202.81;5127381;27;20203;-66
2023/06/16 05:44:10;;;;;;;7.00;6.40;;;;;;;36.15;21.05;100204.84;5130273;27;20306;-68
2023/06/16 05:46:39;;;;;;;7.78;6.15;;;;;;;36.50;20.57;100199.88;5120978;27;20257;-67
2023/06/16 05:49:07;;;;;;;7.43;5.72;;;;;;;36.54;20.65;100211.09;5132149;27;20195;-68
2023/06/16 05:51:35;;;;;;;9.43;6.45;;;;;;;35.88;21.14;100208.88;5128474;27;20227;-66
2023/06/16 05:54:03;;;;;;;7.82;6.18;;;;;;;35.74;21.38;100205.09;5129489;27;20203;-66
2023/06/16 05:56:32;;;;;;;8.30;6.47;;;;;;;36.25;20.64;100201.91;5131388;27;20455;-67
2023/06/16 05:59:00;;;;;;;7.75;5.72;;;;;;;36.98;19.97;100203.94;5129701;27;20214;-66
2023/06/16 06:01:28;;;;;;;7.22;5.40;;;;;;;37.64;18.92;100187.81;5129978;27;20211;-67
2023/06/16 06:03:56;;;;;;;6.72;5.60;;;;;;;37.93;18.48;100194.97;5124030;27;20228;-67
2023/06/16 06:06:25;;;;;;;8.13;5.40;;;;;;;38.29;18.83;100196.72;5129658;27;20206;-66
2023/06/16 06:08:53;;;;;;;6.07;5.53;;;;;;;38.52;17.95;100193.84;5131398;27;20223;-66
2023/06/16 06:11:22;;;;;;;6.35;5.78;;;;;;;38.81;17.62;100205.41;5128672;27;20296;-67
2023/06/16 06:13:51;;;;;;;7.32;5.50;;;;;;;39.24;16.98;100205.25;5129414;27;20720;-66
2023/06/16 06:16:21;;;;;;;5.53;4.97;;;;;;;39.17;16.80;100207.91;5132949;27;20206;-68
2023/06/16 06:18:50;;;;;;;7.20;5.78;;;;;;;38.64;17.24;100207.56;5121006;27;20207;-67
2023/06/16 06:21:18;;;;;;;7.03;5.20;;;;;;;38.56;17.20;100202.34;5130399;27;20195;-66
2023/06/16 06:23:47;;;;;;;6.95;4.90;;;;;;;38.82;16.50;100197.16;5128092;27;20202;-67
2023/06/16 06:26:15;;;;;;;6.07;4.97;;;;;;;39.03;16.79;100195.38;5126676;27;20591;-67
2023/06/16 06:28:43;;;;;;;5.72;4.90;;;;;;;39.22;17.01;100191.97;5133594;27;20199;-66
2023/06/16 06:31:13;;;;;;;7.55;5.20;;;;;;;39.08;16.82;100195.63;5126990;27;20199;-78
2023/06/16 06:33:41;;;;;;;5.30;4.80;;;;;;;38.73;16.80;100186.69;5129569;27;20210;-76
2023/06/16 06:36:10;;;;;;;6.97;5.20;;;;;;;38.55;17.52;100196.09;5123710;27;20246;-75
2023/06/16 06:38:38;;;;;;;5.85;4.53;;;;;;;38.25;17.79;100187.38;5130089;27;20602;-75
2023/06/16 06:41:06;;;;;;;5.60;4.22;;;;;;;37.10;18.74;100198.09;5131143;27;20191;-75
2023/06/16 06:43:34;;;;;;;5.05;4.47;;;;;;;35.97;19.80;100205.09;5127973;27;20321;-74
2023/06/16 06:46:02;;;;;;;6.25;5.03;;;;;;;34.98;20.68;100201.22;5129240;27;20619;-75
2023/06/16 06:48:31;;;;;;;5.53;5.03;;;;;;;34.27;22.09;100202.81;5127270;27;20268;-73
2023/06/16 06:50:59;;;;;;;5.93;5.18;;;;;;;33.83;22.34;100205.75;5125244;27;20639;-73
2023/06/16 06:53:27;;;;;;;7.55;4.70;;;;;;;33.19;22.82;100205.34;5127237;27;20276;-72
2023/06/16 06:55:55;;;;;;;5.78;4.35;;;;;;;32.39;23.82;100207.28;5125372;27;20227;-70
2023/06/16 06:58:23;;;;;;;5.45;4.65;;;;;;;31.72;24.59;100212.16;5128985;27;20210;-69
2023/06/16 07:00:51;;;;;;;6.00;4.72;;;;;;;30.97;25.71;100218.53;5132393;27;20207;-70
2023/06/16 07:03:19;;;;;;;6.65;4.85;;;;;;;30.24;26.69;100219.00;5133080;27;20202;-71
2023/06/16 07:05:49;;;;;;;6.30;4.70;;;;;;;29.72;27.37;100220.19;5130454;27;20223;-71
2023/06/16 07:08:17;;;;;;;5.40;5.00;;;;;;;29.49;28.14;100220.38;5133538;27;20203;-72
2023/06/16 07:10:45;;;;;;;6.35;4.60;;;;;;;29.16;28.79;100224.16;5132817;27;20199;-72
2023/06/16 07:13:13;;;;;;;5.93;5.32;;;;;;;28.82;28.97;100219.06;5130591;27;20566;-71
2023/06/16 07:15:41;;;;;;;8.05;4.45;;;;;;;28.46;29.38;100216.88;5134531;27;20215;-72
2023/06/16 07:18:09;;;;;;;5.47;4.80;;;;;;;28.02;30.01;100221.34;5134722;27;20257;-71
2023/06/16 07:20:36;;;;;;;5.55;5.07;;;;;;;27.29;31.00;100225.44;5129027;27;20250;-69
2023/06/16 07:23:06;;;;;;;5.78;5.15;;;;;;;26.84;32.80;100225.34;5129906;27;20219;-72
2023/06/16 07:25:36;;;;;;;6.72;5.07;;;;;;;26.71;32.98;100228.94;5134432;27;20234;-68
2023/06/16 07:28:05;;;;;;;5.97;5.47;;;;;;;26.61;33.11;100220.00;5131923;27;20207;-71
2023/06/16 07:30:33;;;;;;;14.48;5.22;;;;;;;26.62;33.57;100228.78;5127615;27;20567;-69
2023/06/16 07:33:01;;;;;;;7.00;5.22;;;;;;;26.47;33.67;100225.50;5126480;27;20559;-69
2023/06/16 07:35:29;;;;;;;5.97;5.47;;;;;;;26.28;34.09;100226.00;5135878;27;20558;-69
2023/06/16 07:37:57;;;;;;;6.05;5.30;;;;;;;26.17;34.51;100228.59;5127329;27;20196;-69
2023/06/16 07:40:26;;;;;;;5.63;5.13;;;;;;;26.03;34.71;100216.38;5131032;27;20235;-69
2023/06/16 07:42:54;;;;;;;6.43;4.95;;;;;;;25.77;34.76;100215.59;5129706;27;20299;-68
2023/06/16 07:45:22;;;;;;;8.23;5.38;;;;;;;25.70;34.90;100219.63;5129271;27;20195;-66
2023/06/16 07:47:50;;;;;;;5.65;4.57;;;;;;;25.75;34.36;100220.19;5130508;27;20241;-66
2023/06/16 07:50:18;;;;;;;6.40;4.80;;;;;;;25.68;34.42;100209.22;5132009;27;20311;-73
2023/06/16 07:52:47;;;;;;;7.70;5.10;;;;;;;25.66;34.71;100211.09;5133028;27;20199;-72
2023/06/16 07:55:15;;;;;;;6.43;5.00;;;;;;;25.63;34.26;100210.47;5131142;27;20212;-74
2023/06/16 07:57:44;;;;;;;7.85;5.00;;;;;;;25.54;34.26;100218.09;5135811;27;20222;-73
2023/06/16 08:00:14;;;;;;;7.22;4.57;;;;;;;25.45;34.19;100208.22;5131165;27;20670;-72
2023/06/16 08:02:43;;;;;;;4.55;3.92;;;;;;;25.46;33.99;100215.19;5119865;27;20539;-66
2023/06/16 08:05:12;;;;;;;4.53;4.10;;;;;;;25.50;33.72;100216.66;5125047;27;20222;-71
2023/06/16 08:07:40;;;;;;;6.50;4.75;;;;;;;25.44;33.54;100219.72;5124266;27;20544;-70
2023/06/16 08:10:09;;;;;;;4.55;3.83;;;;;;;25.46;33.67;100223.09;5129573;27;20199;-68
2023/06/16 08:12:40;;;;;;;8.07;3.70;;;;;;;25.49;33.48;100222.88;5132048;27;20532;-75
2023/06/16 08:15:10;;;;;;;5.35;3.75;;;;;;;25.67;33.74;100211.97;5129146;27;20215;-72
2023/06/16 08:17:38;;;;;;;6.65;4.10;;;;;;;25.65;33.35;100206.78;5128102;27;20230;-66
2023/06/16 08:20:08;;;;;;;6.40;4.25;;;;;;;25.60;33.53;100218.63;5126808;27;20658;-67
2023/06/16 08:22:37;;;;;;;5.07;4.22;;;;;;;25.47;33.84;100214.22;5129516;27;20203;-68
2023/06/16 08:25:06;;;;;;;5.25;4.00;;;;;;;25.36;33.79;100223.84;5131307;27;20572;-67
2023/06/16 08:27:34;;;;;;;5.65;4.10;;;;;;;25.19;33.73;100219.78;5126009;27;20203;-68
2023/06/16 08:30:03;;;;;;;4.30;3.90;;;;;;;24.97;34.65;100221.22;5126237;27;20214;-66
2023/06/16 08:32:33;;;;;;;4.72;3.72;;;;;;;24.76;34.98;100220.03;5128697;27;20196;-68
2023/06/16 08:35:02;;;;;;;5.00;3.80;;;;;;;24.63;35.33;100227.91;5121410;27;20211;-70
2023/06/16 08:37:31;;;;;;;6.68;3.92;;;;;;;24.67;35.15;100223.28;5124120;27;20624;-68
2023/06/16 08:39:59;;;;;;;8.05;5.00;;;;;;;24.73;34.91;100212.34;5128820;27;20259;-68
2023/06/16 08:42:30;;;;;;;8.10;4.57;;;;;;;24.74;35.23;100214.88;5126824;27;20200;-66
2023/06/16 08:45:01;;;;;;;5.75;4.40;;;;;;;24.76;35.41;100210.34;5123073;27;20606;-64
2023/06/16 08:47:29;;;;;;;5.78;4.80;;;;;;;24.73;35.15;100204.44;5133089;27;20211;-65
2023/06/16 08:49:59;;;;;;;5.28;4.50;;;;;;;24.80;35.20;100210.97;5136751;27;20571;-66
2023/06/16 08:52:29;;;;;;;5.05;4.47;;;;;;;24.94;35.42;100216.16;5128819;27;20203;-69
2023/06/16 08:55:14;;;;;;;7.43;5.15;;;;;;;24.82;35.81;100214.38;5125305;27;20226;-65
2023/06/16 08:57:46;;;;;;;10.55;5.63;;;;;;;24.66;36.25;100213.69;5126678;27;20199;-67
2023/06/16 09:00:16;;;;;;;9.82;5.85;;;;;;;24.64;36.33;100208.53;5128547;27;20203;-66
2023/06/16 09:02:48;;;;;;;8.45;6.13;;;;;;;24.52;36.36;100220.75;5127269;27;20207;-65
2023/06/16 09:05:19;;;;;;;7.68;5.30;;;;;;;24.41;36.44;100212.69;5127728;27;20230;-66
2023/06/16 09:07:49;;;;;;;8.38;4.95;;;;;;;24.43;36.72;100213.44;5120669;27;20195;-67
2023/06/16 09:10:18;;;;;;;6.75;5.35;;;;;;;24.57;36.50;100213.38;5121430;27;20199;-66
2023/06/16 09:12:52;;;;;;;6.53;5.85;;;;;;;24.70;36.92;100202.00;5123671;27;20614;-65
2023/06/16 09:15:21;;;;;;;6.97;6.25;;;;;;;24.72;37.28;100208.03;5128349;27;20215;-66
2023/06/16 09:17:51;;;;;;;10.95;6.22;;;;;;;24.85;37.29;100200.94;5132293;27;20222;-65
2023/06/16 09:20:22;;;;;;;11.25;6.03;;;;;;;25.04;36.52;100200.56;5127341;27;20648;-67
2023/06/16 09:22:59;;;;;;;9.00;6.07;;;;;;;25.27;36.25;100196.34;5121745;27;20253;-68
2023/06/16 09:25:27;;;;;;;6.95;6.35;;;;;;;25.43;36.01;100196.91;5127220;27;20234;-71
2023/06/16 09:27:56;;;;;;;7.50;5.75;;;;;;;25.59;36.22;100195.81;5136023;27;20217;-71
2023/06/16 09:30:31;;;;;;;6.07;5.15;;;;;;;25.80;35.47;100190.84;5129164;27;20195;-64
2023/06/16 09:32:59;;;;;;;7.38;5.03;;;;;;;25.96;35.11;100184.34;5129407;27;20214;-69
2023/06/16 09:35:31;;;;;;;5.70;5.10;;;;;;;26.04;33.80;100185.56;5124942;27;20210;-72
2023/06/16 09:38:01;;;;;;;5.60;5.07;;;;;;;26.18;33.86;100182.72;5128452;27;20665;-75
2023/06/16 09:40:31;;;;;;;7.57;5.32;;;;;;;26.36;33.63;100181.34;5133148;27;20645;-73
2023/06/16 09:43:01;;;;;;;7.57;5.05;;;;;;;26.40;33.05;100184.59;5131062;27;20192;-73
2023/06/16 09:45:31;;;;;;;6.00;5.40;;;;;;;26.30;32.96;100176.53;5123511;27;20205;-73
2023/06/16 09:48:03;;;;;;;6.90;5.45;;;;;;;26.19;33.31;100187.91;5131978;27;20263;-74
2023/06/16 09:50:34;;;;;;;6.00;5.50;;;;;;;26.26;33.87;100183.00;5120878;27;20570;-67
2023/06/16 09:53:06;;;;;;;7.03;5.13;;;;;;;26.49;33.29;100174.22;5134019;27;20234;-69
2023/06/16 09:55:37;;;;;;;6.55;4.82;;;;;;;26.90;32.31;100167.53;5130203;27;20310;-70
2023/06/16 09:58:06;;;;;;;7.85;5.40;;;;;;;27.07;32.34;100176.81;5132081;27;20219;-69
2023/06/16 10:00:34;;;;;;;5.65;5.13;;;;;;;27.17;31.76;100172.53;5126587;27;20609;-70
2023/06/16 10:03:07;;;;;;;5.75;5.13;;;;;;;26.73;31.89;100178.56;5131581;27;20260;-61
2023/06/16 10:05:39;;;;;;;6.18;5.68;;;;;;;26.24;32.86;100177.81;5119153;27;20200;-62
2023/06/16 10:08:08;;;;;;;6.30;4.95;;;;;;;25.71;33.39;100171.22;5122380;27;20290;-62
2023/06/16 10:10:40;;;;;;;9.10;5.70;;;;;;;25.41;34.55;100172.47;5123274;27;20630;-64
2023/06/16 10:13:09;;;;;;;6.28;5.43;;;;;;;25.32;35.16;100173.09;5124905;27;20203;-65
2023/06/16 10:15:39;;;;;;;6.40;5.25;;;;;;;25.29;34.81;100173.31;5139041;27;20230;-65
2023/06/16 10:18:08;;;;;;;5.40;4.90;;;;;;;25.36;34.90;100163.16;5127278;28;20207;-63
2023/06/16 10:20:41;;;;;;;5.38;4.88;;;;;;;25.97;35.21;100161.41;5125303;27;20271;-65
2023/06/16 10:23:10;;;;;;;14.18;5.80;;;;;;;27.80;31.84;100146.31;5129878;27;20205;-64
2023/06/16 10:25:40;;;;;;;6.05;5.47;;;;;;;29.81;29.14;100145.81;5128202;27;20714;-64
2023/06/16 10:28:13;;;;;;;8.38;5.15;;;;;;;31.59;26.17;100150.38;5131811;28;20199;-63
2023/06/16 10:30:44;;;;;;;5.90;5.20;;;;;;;33.05;24.31;100141.88;5125208;27;20203;-62
2023/06/16 10:33:18;;;;;;;5.10;4.60;;;;;;;33.94;22.91;100140.41;5124575;28;20199;-62
2023/06/16 10:35:55;;;;;;;5.38;4.90;;;;;;;34.89;22.02;100143.34;5130809;27;20650;-61
2023/06/16 10:38:43;;;;;;;5.43;4.95;;;;;;;35.49;20.51;100145.41;5125317;27;20195;-61
2023/06/16 10:41:14;;;;;;;6.00;4.75;;;;;;;35.30;20.90;100135.16;5129655;27;20192;-65
2023/06/16 10:43:43;;;;;;;4.68;4.25;;;;;;;34.56;21.01;100138.09;5122099;27;20294;-63
2023/06/16 10:46:18;;;;;;;6.63;4.70;;;;;;;34.14;22.06;100135.63;5133382;27;20203;-64
2023/06/16 10:49:18;;;;;;;6.50;5.28;;;;;;;34.77;21.36;100128.66;5134245;27;20236;-62
2023/06/16 10:51:49;;;;;;;5.95;4.60;;;;;;;35.82;20.10;100121.09;5124718;27;20218;-62
2023/06/16 10:54:44;;;;;;;5.32;4.85;;;;;;;36.79;18.83;100126.56;5133196;27;20569;-64
2023/06/16 10:57:13;;;;;;;5.15;4.28;;;;;;;36.44;19.14;100126.25;5131057;27;20260;-63
2023/06/16 10:59:55;;;;;;;5.03;4.50;;;;;;;36.20;19.05;100134.56;5128816;27;20195;-62
2023/06/16 11:02:26;;;;;;;5.40;5.00;;;;;;;35.33;19.30;100127.59;5129553;27;20202;-61
2023/06/16 11:05:11;;;;;;;5.43;5.00;;;;;;;32.91;22.21;100132.59;5128177;27;20263;-63
2023/06/16 11:07:42;;;;;;;5.45;4.90;;;;;;;30.93;24.91;100132.81;5126600;27;20243;-60
2023/06/16 11:10:12;;;;;;;6.10;4.22;;;;;;;30.61;25.33;100125.19;5125969;27;20525;-60
2023/06/16 11:12:42;;;;;;;4.80;4.40;;;;;;;31.75;25.11;100134.56;5133697;27;20210;-61
2023/06/16 11:15:11;;;;;;;5.03;4.50;;;;;;;32.68;23.57;100123.47;5127773;27;20210;-61
2023/06/16 11:17:39;;;;;;;4.57;4.18;;;;;;;33.39;22.87;100120.44;5129692;27;20259;-62
2023/06/16 11:20:09;;;;;;;6.80;4.57;;;;;;;34.21;21.73;100117.91;5131601;27;20336;-62
2023/06/16 11:22:38;;;;;;;4.00;3.28;;;;;;;34.85;20.89;100115.25;5132305;27;20202;-63
2023/06/16 11:25:08;;;;;;;4.38;4.07;;;;;;;35.15;19.81;100118.16;5131018;27;20348;-62
2023/06/16 11:27:37;;;;;;;8.02;4.18;;;;;;;35.46;19.45;100115.44;5124102;27;20443;-62
2023/06/16 11:30:07;;;;;;;4.18;3.88;;;;;;;35.61;18.96;100112.88;5132505;27;20203;-66
2023/06/16 11:32:37;;;;;;;4.15;3.80;;;;;;;35.65;19.28;100103.47;5127417;27;20214;-67